Time;durP1;ratioP1;P1;durP2;ratioP2;P2;SDS_P1;SDS_P2;PMS_P1;PMS_P2;Temp;Humidity;BMP_temperature;BMP_pressure;BME280_temperature;BME280_humidity;BME280_pressure;Samples;Min_cycle;Max_cycle;Signal;HPM_P1;HPM_P2
2023/04/03 00:02:24;;;;;;;;;;;11.10;64.40;;;;;;5098888;27;89324;-40
2023/04/03 00:04:50;;;;;;;;;;;11.10;64.40;;;;;;5102786;27;87844;-40
2023/04/03 00:07:15;;;;;;;;;;;11.10;64.60;;;;;;5102397;27;88602;-40
2023/04/03 00:09:41;;;;;;;;;;;11.00;64.50;;;;;;5103022;27;87302;-40
2023/04/03 00:12:06;;;;;;;;;;;11.00;64.40;;;;;;5102583;27;87698;-40
2023/04/03 00:14:32;;;;;;;;;;;11.00;64.50;;;;;;5105097;27;88920;-40
2023/04/03 00:16:57;;;;;;;;;;;11.00;64.60;;;;;;5102954;27;87058;-40
2023/04/03 00:19:23;;;;;;;;;;;11.00;64.50;;;;;;5102743;27;89400;-40
2023/04/03 00:21:48;;;;;;;;;;;11.00;64.50;;;;;;5102937;27;87942;-40
2023/04/03 00:24:14;;;;;;;;;;;11.00;64.40;;;;;;5103500;27;86406;-40
2023/04/03 00:26:39;;;;;;;;;;;10.90;64.50;;;;;;5102771;27;88012;-40
2023/04/03 00:29:05;;;;;;;;;;;10.90;64.60;;;;;;5102788;27;88222;-40
2023/04/03 00:31:30;;;;;;;;;;;10.90;64.50;;;;;;5102042;27;88134;-40
2023/04/03 00:33:56;;;;;;;;;;;10.90;64.50;;;;;;5102827;27;88923;-40
2023/04/03 00:36:21;;;;;;;;;;;10.90;64.50;;;;;;5105169;27;89516;-40
2023/04/03 00:38:47;;;;;;;;;;;10.90;64.60;;;;;;5103219;27;87513;-40
2023/04/03 00:41:12;;;;;;;;;;;10.90;64.60;;;;;;5102991;27;88115;-40
2023/04/03 00:43:38;;;;;;;;;;;10.80;64.50;;;;;;5102868;27;87003;-40
2023/04/03 00:46:04;;;;;;;;;;;10.80;64.40;;;;;;5102697;27;88758;-40
2023/04/03 00:48:37;;;;;;;;;;;10.80;64.60;;;;;;5102871;27;88468;-40
2023/04/03 00:51:05;;;;;;;;;;;10.80;64.60;;;;;;5099536;27;87088;-40
2023/04/03 00:53:33;;;;;;;;;;;10.80;64.60;;;;;;5106445;27;87701;-40
2023/04/03 00:56:00;;;;;;;;;;;10.80;64.60;;;;;;5105233;27;90525;-40
2023/04/03 00:58:39;;;;;;;;;;;10.70;64.60;;;;;;5105471;27;87107;-40
2023/04/03 01:01:08;;;;;;;;;;;10.70;64.60;;;;;;5105983;27;89643;-40
2023/04/03 01:03:33;;;;;;;;;;;10.70;64.50;;;;;;5106259;27;87492;-40
2023/04/03 01:05:59;;;;;;;;;;;10.70;64.50;;;;;;5106109;27;88847;-40
2023/04/03 01:08:25;;;;;;;;;;;10.70;64.40;;;;;;5105417;27;88272;-40
2023/04/03 01:10:51;;;;;;;;;;;10.70;64.60;;;;;;5106237;27;87125;-40
2023/04/03 01:13:26;;;;;;;;;;;10.60;64.40;;;;;;5106052;27;88555;-40
2023/04/03 01:15:52;;;;;;;;;;;10.60;64.60;;;;;;5097853;27;89271;-40
2023/04/03 01:18:17;;;;;;;;;;;10.60;64.50;;;;;;5106271;27;87049;-40
2023/04/03 01:21:04;;;;;;;;;;;10.60;64.60;;;;;;5107990;27;89194;-40
2023/04/03 01:23:33;;;;;;;;;;;10.60;64.50;;;;;;5103523;27;86998;-40
2023/04/03 01:25:58;;;;;;;;;;;10.60;64.60;;;;;;5105709;27;88827;-40
2023/04/03 01:28:31;;;;;;;;;;;10.60;64.60;;;;;;5105563;27;89247;-40
2023/04/03 01:31:06;;;;;;;;;;;10.50;64.50;;;;;;5098363;27;87105;-40
2023/04/03 01:33:32;;;;;;;;;;;10.60;64.60;;;;;;5105528;27;88809;-40
2023/04/03 01:35:57;;;;;;;;;;;10.50;64.50;;;;;;5105362;27;89289;-40
2023/04/03 01:38:23;;;;;;;;;;;10.50;64.60;;;;;;5106501;27;86243;-40
2023/04/03 01:40:49;;;;;;;;;;;10.50;64.60;;;;;;5108330;27;87241;-40
2023/04/03 01:43:15;;;;;;;;;;;10.50;64.60;;;;;;5101621;27;87723;-40
2023/04/03 01:45:40;;;;;;;;;;;10.50;64.60;;;;;;5104984;27;88751;-40
2023/04/03 01:48:05;;;;;;;;;;;10.50;64.60;;;;;;5105463;27;88347;-40
2023/04/03 01:50:31;;;;;;;;;;;10.50;64.60;;;;;;5101443;27;87804;-40
2023/04/03 01:52:57;;;;;;;;;;;10.40;64.60;;;;;;5105499;27;88736;-40
2023/04/03 01:55:22;;;;;;;;;;;10.40;64.70;;;;;;5100881;27;89559;-40
2023/04/03 01:57:48;;;;;;;;;;;10.40;64.60;;;;;;5105047;27;87119;-40
2023/04/03 02:00:13;;;;;;;;;;;10.40;64.60;;;;;;5105553;27;88845;-40
2023/04/03 02:02:39;;;;;;;;;;;10.40;64.70;;;;;;5106814;27;89117;-40
2023/04/03 02:05:05;;;;;;;;;;;10.40;64.60;;;;;;5104687;27;88154;-40
2023/04/03 02:07:30;;;;;;;;;;;10.40;64.60;;;;;;5104904;27;90254;-40
2023/04/03 02:09:56;;;;;;;;;;;10.30;64.60;;;;;;5104400;27;87970;-40
2023/04/03 02:12:21;;;;;;;;;;;10.30;64.60;;;;;;5105348;27;88927;-40
2023/04/03 02:14:47;;;;;;;;;;;10.30;64.50;;;;;;5104454;27;90172;-40
2023/04/03 02:17:12;;;;;;;;;;;10.30;64.60;;;;;;5105078;27;87064;-40
2023/04/03 02:19:38;;;;;;;;;;;10.30;64.60;;;;;;5105194;27;88994;-40
2023/04/03 02:22:04;;;;;;;;;;;10.20;64.70;;;;;;5104845;27;88223;-40
2023/04/03 02:24:30;;;;;;;;;;;10.30;64.60;;;;;;5107843;27;87171;-40
2023/04/03 02:26:56;;;;;;;;;;;10.30;64.70;;;;;;5100899;27;88496;-40
2023/04/03 02:29:21;;;;;;;;;;;10.20;64.60;;;;;;5104988;27;87149;-40
2023/04/03 02:31:47;;;;;;;;;;;10.20;64.60;;;;;;5104541;27;88693;-40
2023/04/03 02:34:12;;;;;;;;;;;10.20;64.60;;;;;;5103857;27;91484;-40
2023/04/03 02:36:38;;;;;;;;;;;10.20;64.70;;;;;;5104799;27;87215;-40
2023/04/03 02:39:04;;;;;;;;;;;10.20;64.60;;;;;;5104979;27;87474;-40
2023/04/03 02:41:34;;;;;;;;;;;10.20;64.60;;;;;;5104571;27;88117;-40
2023/04/03 02:44:00;;;;;;;;;;;10.20;64.60;;;;;;5103488;27;87053;-40
2023/04/03 02:46:26;;;;;;;;;;;10.10;64.50;;;;;;5107257;27;87686;-40
2023/04/03 02:48:51;;;;;;;;;;;10.10;64.60;;;;;;5100323;27;87728;-40
2023/04/03 02:51:17;;;;;;;;;;;10.10;64.70;;;;;;5104798;27;88907;-40
2023/04/03 02:53:43;;;;;;;;;;;10.10;64.60;;;;;;5103870;27;89171;-40
2023/04/03 02:56:08;;;;;;;;;;;10.10;64.60;;;;;;5104238;27;87134;-40
2023/04/03 02:58:34;;;;;;;;;;;10.10;64.60;;;;;;5103762;27;88791;-40
2023/04/03 03:00:59;;;;;;;;;;;10.00;64.70;;;;;;5100273;27;89406;-40
2023/04/03 03:03:25;;;;;;;;;;;10.00;64.70;;;;;;5104256;27;87074;-40
2023/04/03 03:06:00;;;;;;;;;;;10.00;64.60;;;;;;5104034;27;89159;-40
2023/04/03 03:08:25;;;;;;;;;;;10.00;64.70;;;;;;5103440;27;89810;-40
2023/04/03 03:10:51;;;;;;;;;;;10.00;64.70;;;;;;5104057;27;88857;-40
2023/04/03 03:13:17;;;;;;;;;;;10.00;64.70;;;;;;5103136;27;88463;-40
2023/04/03 03:15:42;;;;;;;;;;;9.90;64.60;;;;;;5104197;27;86249;-40
2023/04/03 03:18:08;;;;;;;;;;;9.90;64.80;;;;;;5104115;27;87382;-40
2023/04/03 03:20:33;;;;;;;;;;;9.90;64.70;;;;;;5103701;27;87068;-40
2023/04/03 03:22:59;;;;;;;;;;;9.90;64.80;;;;;;5103212;27;88468;-40
2023/04/03 03:25:24;;;;;;;;;;;9.90;64.70;;;;;;5103840;27;89734;-40
2023/04/03 03:27:50;;;;;;;;;;;9.90;64.70;;;;;;5103410;27;88906;-40
2023/04/03 03:30:15;;;;;;;;;;;9.90;64.80;;;;;;5106654;27;87380;-40
2023/04/03 03:32:41;;;;;;;;;;;9.80;64.70;;;;;;5103444;27;89355;-40
2023/04/03 03:35:06;;;;;;;;;;;9.90;64.70;;;;;;5103499;27;87178;-40
2023/04/03 03:37:32;;;;;;;;;;;9.80;64.70;;;;;;5102646;27;88821;-40
2023/04/03 03:39:57;;;;;;;;;;;9.80;64.60;;;;;;5100414;27;89033;-40
2023/04/03 03:42:23;;;;;;;;;;;9.80;64.70;;;;;;5103107;27;87366;-40
2023/04/03 03:44:48;;;;;;;;;;;9.80;64.80;;;;;;5103622;27;87886;-40
2023/04/03 03:47:14;;;;;;;;;;;9.80;64.80;;;;;;5102565;27;90717;-40
2023/04/03 03:49:40;;;;;;;;;;;9.70;64.80;;;;;;5106551;27;86947;-40
2023/04/03 03:52:06;;;;;;;;;;;9.80;64.80;;;;;;5103006;27;89029;-40
2023/04/03 03:54:31;;;;;;;;;;;9.70;64.80;;;;;;5103485;27;87328;-40
2023/04/03 03:56:57;;;;;;;;;;;9.70;64.80;;;;;;5103784;27;87525;-40
2023/04/03 03:59:22;;;;;;;;;;;9.70;64.70;;;;;;5102950;27;88621;-40
2023/04/03 04:01:48;;;;;;;;;;;9.70;64.70;;;;;;5103845;27;87116;-40
2023/04/03 04:04:13;;;;;;;;;;;9.70;64.80;;;;;;5104188;27;87335;-40
2023/04/03 04:06:39;;;;;;;;;;;9.70;64.70;;;;;;5103149;27;88422;-40
2023/04/03 04:09:04;;;;;;;;;;;9.70;64.80;;;;;;5103188;27;87096;-40
2023/04/03 04:11:30;;;;;;;;;;;9.60;64.70;;;;;;5105001;27;89101;-40
2023/04/03 04:13:55;;;;;;;;;;;9.60;64.80;;;;;;5102720;27;87163;-40
2023/04/03 04:16:21;;;;;;;;;;;9.60;64.80;;;;;;5103638;27;87582;-40
2023/04/03 04:18:46;;;;;;;;;;;9.60;65.50;;;;;;5102695;27;89067;-40
2023/04/03 04:21:12;;;;;;;;;;;9.60;64.80;;;;;;5102683;27;87113;-40
2023/04/03 04:23:37;;;;;;;;;;;9.60;64.80;;;;;;5102982;27;88930;-40
2023/04/03 04:26:03;;;;;;;;;;;9.60;64.90;;;;;;5101975;27;88081;-40
2023/04/03 04:28:29;;;;;;;;;;;9.60;64.80;;;;;;5103078;27;86370;-40
2023/04/03 04:30:54;;;;;;;;;;;9.50;64.80;;;;;;5102600;27;88059;-40
2023/04/03 04:33:20;;;;;;;;;;;9.50;64.80;;;;;;5105158;27;89562;-40
2023/04/03 04:35:47;;;;;;;;;;;9.50;64.80;;;;;;5101824;27;88075;-40
2023/04/03 04:38:12;;;;;;;;;;;9.50;64.60;;;;;;5101933;27;89738;-40
2023/04/03 04:40:38;;;;;;;;;;;9.50;64.80;;;;;;5102362;27;87544;-40
2023/04/03 04:43:03;;;;;;;;;;;9.50;65.00;;;;;;5102347;27;88552;-40
2023/04/03 04:45:29;;;;;;;;;;;9.50;65.00;;;;;;5101881;27;89388;-40
2023/04/03 04:47:55;;;;;;;;;;;9.50;64.90;;;;;;5102278;27;87120;-40
2023/04/03 04:50:21;;;;;;;;;;;9.50;64.90;;;;;;5102173;27;88749;-40
2023/04/03 04:52:46;;;;;;;;;;;9.40;64.90;;;;;;5102640;27;88640;-40
2023/04/03 04:55:12;;;;;;;;;;;9.40;65.00;;;;;;5105360;27;87108;-40
2023/04/03 04:57:38;;;;;;;;;;;9.40;64.90;;;;;;5101907;27;90379;-40
2023/04/03 05:00:04;;;;;;;;;;;9.40;64.90;;;;;;5101985;27;88047;-40
2023/04/03 05:02:30;;;;;;;;;;;9.40;64.90;;;;;;5102755;27;91309;-40
2023/04/03 05:04:56;;;;;;;;;;;9.40;64.80;;;;;;5101999;27;89188;-40
2023/04/03 05:07:21;;;;;;;;;;;9.40;64.90;;;;;;5098266;27;87713;-40
2023/04/03 05:09:47;;;;;;;;;;;9.40;64.90;;;;;;5102353;27;88175;-40
2023/04/03 05:12:13;;;;;;;;;;;9.40;65.00;;;;;;5101940;27;89558;-40
2023/04/03 05:14:38;;;;;;;;;;;9.40;65.00;;;;;;5097357;27;91506;-40
2023/04/03 05:17:04;;;;;;;;;;;9.30;65.00;;;;;;5105333;27;87286;-40
2023/04/03 05:19:29;;;;;;;;;;;9.30;65.00;;;;;;5101708;27;87317;-40
2023/04/03 05:21:55;;;;;;;;;;;9.30;65.00;;;;;;5102497;27;87427;-40
2023/04/03 05:24:20;;;;;;;;;;;9.30;65.00;;;;;;5101093;27;90323;-40
2023/04/03 05:26:46;;;;;;;;;;;9.30;65.00;;;;;;5101987;27;87171;-40
2023/04/03 05:29:11;;;;;;;;;;;9.30;65.00;;;;;;5101491;27;88687;-40
2023/04/03 05:31:37;;;;;;;;;;;9.30;65.00;;;;;;5101860;27;89316;-40
2023/04/03 05:34:02;;;;;;;;;;;9.30;64.90;;;;;;5102015;27;87040;-40
2023/04/03 05:36:28;;;;;;;;;;;9.30;64.80;;;;;;5104503;27;87194;-40
2023/04/03 05:38:56;;;;;;;;;;;9.30;64.90;;;;;;5105385;27;87046;-40
2023/04/03 05:41:21;;;;;;;;;;;9.20;65.00;;;;;;5105874;27;88859;-40
2023/04/03 05:43:47;;;;;;;;;;;9.20;65.00;;;;;;5105510;27;87095;-40
2023/04/03 05:46:13;;;;;;;;;;;9.20;65.10;;;;;;5105200;27;87455;-40
2023/04/03 05:48:38;;;;;;;;;;;9.20;65.00;;;;;;5104886;27;88595;-40
2023/04/03 05:51:05;;;;;;;;;;;9.20;65.00;;;;;;5104952;27;89534;-40
2023/04/03 05:53:32;;;;;;;;;;;9.20;65.00;;;;;;5105481;27;86981;-40
2023/04/03 05:56:01;;;;;;;;;;;9.20;65.00;;;;;;4873482;27;10001179;-40
2023/04/03 05:58:26;;;;;;;;;;;9.20;65.00;;;;;;5108255;27;87375;-40
2023/04/03 06:00:52;;;;;;;;;;;9.20;65.10;;;;;;5105078;27;87189;-40
2023/04/03 06:03:18;;;;;;;;;;;9.20;65.00;;;;;;5104170;27;87194;-40
2023/04/03 06:05:43;;;;;;;;;;;9.20;65.10;;;;;;5105094;27;86753;-40
2023/04/03 06:08:09;;;;;;;;;;;9.20;65.10;;;;;;5101197;27;87076;-40
2023/04/03 06:10:35;;;;;;;;;;;9.20;65.00;;;;;;5104751;27;87332;-40
2023/04/03 06:13:00;;;;;;;;;;;9.20;65.20;;;;;;5103918;27;88622;-40
2023/04/03 06:15:26;;;;;;;;;;;9.20;65.00;;;;;;5105058;27;87900;-40
2023/04/03 06:17:51;;;;;;;;;;;9.20;65.20;;;;;;5104222;27;89486;-40
2023/04/03 06:20:17;;;;;;;;;;;9.20;65.10;;;;;;5108064;27;87226;-40
2023/04/03 06:22:42;;;;;;;;;;;9.20;65.10;;;;;;5104192;27;89592;-40
2023/04/03 06:25:09;;;;;;;;;;;9.10;65.10;;;;;;5104774;27;87241;-40
2023/04/03 06:27:34;;;;;;;;;;;9.10;65.10;;;;;;5104832;27;89232;-40
2023/04/03 06:30:00;;;;;;;;;;;9.10;65.10;;;;;;5105137;27;88697;-40
2023/04/03 06:32:26;;;;;;;;;;;9.10;65.10;;;;;;5104660;27;87077;-40
2023/04/03 06:34:53;;;;;;;;;;;9.10;65.10;;;;;;5104475;27;88449;-40
2023/04/03 06:37:19;;;;;;;;;;;9.10;65.30;;;;;;5103159;27;89190;-40
2023/04/03 06:39:45;;;;;;;;;;;9.10;65.10;;;;;;5105057;27;87149;-40
2023/04/03 06:42:10;;;;;;;;;;;9.10;65.10;;;;;;5107650;27;88787;-40
2023/04/03 06:44:36;;;;;;;;;;;9.10;65.10;;;;;;5104960;27;87282;-40
2023/04/03 06:47:02;;;;;;;;;;;9.10;65.10;;;;;;5104676;27;89070;-40
2023/04/03 06:49:28;;;;;;;;;;;9.10;65.20;;;;;;5102964;27;89433;-40
2023/04/03 06:51:54;;;;;;;;;;;9.10;65.30;;;;;;5104631;27;88014;-40
2023/04/03 06:54:20;;;;;;;;;;;9.10;65.30;;;;;;5105025;27;88629;-40
2023/04/03 06:56:45;;;;;;;;;;;9.10;65.30;;;;;;5104037;27;89417;-40
2023/04/03 06:59:13;;;;;;;;;;;9.10;65.30;;;;;;5104615;27;87180;-40
2023/04/03 07:01:39;;;;;;;;;;;9.10;65.30;;;;;;5103310;27;88669;-40
2023/04/03 07:04:05;;;;;;;;;;;9.00;65.30;;;;;;5106011;27;89258;-40
2023/04/03 07:06:32;;;;;;;;;;;9.10;65.40;;;;;;5099835;27;87881;-40
2023/04/03 07:08:57;;;;;;;;;;;9.00;65.50;;;;;;5103708;27;88355;-40
2023/04/03 07:11:23;;;;;;;;;;;9.10;65.40;;;;;;5103974;27;87502;-40
2023/04/03 07:13:49;;;;;;;;;;;9.10;65.30;;;;;;5103816;27;89026;-40
2023/04/03 07:16:15;;;;;;;;;;;9.10;65.40;;;;;;5103685;27;89307;-40
2023/04/03 07:18:41;;;;;;;;;;;9.10;65.40;;;;;;5104649;27;86455;-40
2023/04/03 07:21:07;;;;;;;;;;;9.10;65.40;;;;;;5100356;27;87399;-40
2023/04/03 07:23:32;;;;;;;;;;;9.10;65.40;;;;;;5104011;27;87947;-40
2023/04/03 07:25:58;;;;;;;;;;;9.10;65.40;;;;;;5106429;27;88006;-40
2023/04/03 07:28:24;;;;;;;;;;;9.00;65.50;;;;;;5103822;27;87992;-40
2023/04/03 07:30:54;;;;;;;;;;;9.00;65.50;;;;;;5103598;27;87102;-40
2023/04/03 07:33:21;;;;;;;;;;;9.10;65.50;;;;;;5103530;27;89011;-40
2023/04/03 07:35:47;;;;;;;;;;;9.10;65.50;;;;;;5103946;27;88258;-40
2023/04/03 07:38:12;;;;;;;;;;;9.10;65.50;;;;;;5103810;27;87757;-40
2023/04/03 07:40:38;;;;;;;;;;;9.10;65.50;;;;;;5103996;27;88730;-40
2023/04/03 07:43:04;;;;;;;;;;;9.10;65.60;;;;;;5104113;27;88562;-40
2023/04/03 07:45:30;;;;;;;;;;;9.00;65.50;;;;;;5106803;27;87216;-40
2023/04/03 07:47:56;;;;;;;;;;;9.00;65.60;;;;;;5099284;27;89208;-40
2023/04/03 07:50:22;;;;;;;;;;;9.10;65.70;;;;;;5103008;27;88123;-40
2023/04/03 07:52:48;;;;;;;;;;;9.00;65.80;;;;;;5103863;27;89431;-40
2023/04/03 07:55:13;;;;;;;;;;;9.00;65.70;;;;;;5103630;27;89582;-40
2023/04/03 07:57:40;;;;;;;;;;;9.00;65.80;;;;;;5104123;27;87121;-40
2023/04/03 08:00:06;;;;;;;;;;;9.00;65.90;;;;;;5104023;27;88870;-40
2023/04/03 08:02:34;;;;;;;;;;;9.00;65.90;;;;;;5103119;27;90420;-40
2023/04/03 08:04:59;;;;;;;;;;;9.00;66.00;;;;;;5102898;27;87072;-40
2023/04/03 08:07:25;;;;;;;;;;;9.00;66.00;;;;;;5106355;27;87752;-40
2023/04/03 08:09:50;;;;;;;;;;;9.00;66.00;;;;;;5103373;27;87111;-40
2023/04/03 08:12:16;;;;;;;;;;;9.00;66.00;;;;;;5103205;27;88090;-40
2023/04/03 08:14:41;;;;;;;;;;;9.00;66.00;;;;;;5100967;27;89344;-40
2023/04/03 08:17:11;;;;;;;;;;;9.00;66.10;;;;;;5102148;27;87297;-40
2023/04/03 08:19:39;;;;;;;;;;;9.00;66.10;;;;;;5102580;27;87413;-40
2023/04/03 08:22:06;;;;;;;;;;;9.00;66.10;;;;;;5101942;27;89501;-40
2023/04/03 08:24:31;;;;;;;;;;;9.00;66.10;;;;;;5102375;27;87076;-40
2023/04/03 08:26:57;;;;;;;;;;;9.00;66.10;;;;;;5102460;27;88638;-40
2023/04/03 08:29:23;;;;;;;;;;;9.00;66.10;;;;;;5105235;27;89167;-40
2023/04/03 08:31:50;;;;;;;;;;;9.00;66.10;;;;;;5098405;27;89063;-40
2023/04/03 08:34:15;;;;;;;;;;;9.10;65.90;;;;;;5101899;27;89401;-40
2023/04/03 08:36:41;;;;;;;;;;;9.10;66.10;;;;;;5101864;27;87311;-40
2023/04/03 08:39:07;;;;;;;;;;;9.10;66.00;;;;;;5101460;27;88809;-40
2023/04/03 08:41:35;;;;;;;;;;;9.10;66.00;;;;;;5101835;27;88346;-40
2023/04/03 08:44:13;;;;;;;;;;;9.10;65.90;;;;;;5101852;27;88056;-40
2023/04/03 08:46:38;;;;;;;;;;;9.10;66.00;;;;;;5101764;27;88687;-40
2023/04/03 08:49:04;;;;;;;;;;;9.10;66.20;;;;;;5101978;27;88144;-40
2023/04/03 08:51:31;;;;;;;;;;;9.10;66.20;;;;;;5104992;27;87159;-40
2023/04/03 08:54:00;;;;;;;;;;;9.10;66.00;;;;;;5101759;27;89200;-40
2023/04/03 08:56:26;;;;;;;;;;;9.10;65.90;;;;;;5102033;27;86429;-40
2023/04/03 08:59:00;;;;;;;;;;;9.10;65.80;;;;;;5102238;27;87377;-40
2023/04/03 09:01:35;;;;;;;;;;;9.10;66.00;;;;;;5097574;27;89415;-40
2023/04/03 09:04:00;;;;;;;;;;;9.10;65.90;;;;;;5100543;27;88539;-40
2023/04/03 09:06:32;;;;;;;;;;;9.10;66.10;;;;;;5101329;27;89125;-40
2023/04/03 09:09:10;;;;;;;;;;;9.10;65.90;;;;;;5097102;27;89661;-40
2023/04/03 09:11:39;;;;;;;;;;;9.10;65.90;;;;;;5101810;27;87150;-40
2023/04/03 09:14:04;;;;;;;;;;;9.10;65.90;;;;;;5103585;27;88834;-40
2023/04/03 09:16:47;;;;;;;;;;;9.10;66.10;;;;;;5105185;27;87909;-40
2023/04/03 09:19:24;;;;;;;;;;;9.10;65.90;;;;;;5105156;27;88822;-40
2023/04/03 09:21:50;;;;;;;;;;;9.10;65.80;;;;;;5105041;27;88543;-40
2023/04/03 09:24:17;;;;;;;;;;;9.10;65.70;;;;;;5104680;27;87035;-40
2023/04/03 09:26:52;;;;;;;;;;;9.20;65.80;;;;;;5105047;27;88815;-40
2023/04/03 09:29:20;;;;;;;;;;;9.10;65.70;;;;;;5101230;27;89051;-40
2023/04/03 09:31:47;;;;;;;;;;;9.20;65.80;;;;;;5104930;27;87150;-40
2023/04/03 09:34:23;;;;;;;;;;;9.10;65.70;;;;;;5104741;27;88966;-40
2023/04/03 09:36:51;;;;;;;;;;;9.20;65.80;;;;;;5104672;27;89418;-40
2023/04/03 09:39:24;;;;;;;;;;;9.20;65.70;;;;;;5104571;27;88802;-40
2023/04/03 09:41:57;;;;;;;;;;;9.20;65.90;;;;;;5103966;27;89612;-40
2023/04/03 09:44:35;;;;;;;;;;;9.20;65.90;;;;;;5104637;27;87143;-40
2023/04/03 09:47:17;;;;;;;;;;;9.20;65.90;;;;;;5104798;27;89479;-40
2023/04/03 09:49:42;;;;;;;;;;;9.10;66.00;;;;;;5104139;27;91408;-40
2023/04/03 09:52:18;;;;;;;;;;;9.10;66.10;;;;;;5104613;27;87205;-40
2023/04/03 09:54:43;;;;;;;;;;;9.10;66.20;;;;;;5101541;27;87975;-40
2023/04/03 09:57:11;;;;;;;;;;;9.10;66.20;;;;;;5103456;27;87932;-43
2023/04/03 09:59:47;;;;;;;;;;;9.20;66.80;;;;;;5104106;27;88980;-41
2023/04/03 10:02:15;;;;;;;;;;;9.20;66.60;;;;;;5097314;27;88174;-43
2023/04/03 10:04:41;;;;;;;;;;;9.10;66.00;;;;;;5104082;27;87599;-43
2023/04/03 10:07:30;;;;;;;;;;;9.10;66.00;;;;;;5104359;27;87627;-42
2023/04/03 10:09:57;;;;;;;;;;;9.10;67.10;;;;;;5102437;27;89605;-40
2023/04/03 10:12:22;;;;;;;;;;;9.10;66.20;;;;;;5104825;27;86373;-40
2023/04/03 10:15:01;;;;;;;;;;;9.10;66.30;;;;;;5100159;27;87198;-40
2023/04/03 10:17:45;;;;;;;;;;;9.30;65.90;;;;;;5103535;27;89408;-40
2023/04/03 10:20:11;;;;;;;;;;;9.30;65.60;;;;;;5104167;27;88275;-40
2023/04/03 10:22:47;;;;;;;;;;;9.30;65.60;;;;;;5103310;27;89518;-40
2023/04/03 10:25:32;;;;;;;;;;;9.40;66.30;;;;;;5100047;27;87182;-40
2023/04/03 10:28:01;;;;;;;;;;;9.30;65.80;;;;;;5104237;27;88747;-40
2023/04/03 10:30:48;;;;;;;;;;;9.30;65.80;;;;;;5103790;27;87827;-40
2023/04/03 10:33:13;;;;;;;;;;;9.30;65.90;;;;;;5100648;27;87188;-40
2023/04/03 10:35:43;;;;;;;;;;;9.40;66.00;;;;;;5102943;27;91166;-40
2023/04/03 10:38:09;;;;;;;;;;;9.40;66.10;;;;;;5103542;27;88551;-40
2023/04/03 10:40:40;;;;;;;;;;;9.30;66.00;;;;;;5103568;27;87225;-40
2023/04/03 10:43:16;;;;;;;;;;;9.30;66.10;;;;;;5103181;27;88490;-40
2023/04/03 10:45:50;;;;;;;;;;;9.30;66.00;;;;;;5102911;27;88136;-40
2023/04/03 10:48:30;;;;;;;;;;;9.30;66.10;;;;;;5099913;27;89705;-40
2023/04/03 10:51:14;;;;;;;;;;;9.30;66.10;;;;;;5103195;27;88971;-40
2023/04/03 10:53:58;;;;;;;;;;;9.30;66.10;;;;;;5101827;27;87466;-40
2023/04/03 10:56:41;;;;;;;;;;;9.30;66.20;;;;;;5101156;27;88604;-40
2023/04/03 10:59:10;;;;;;;;;;;9.30;66.10;;;;;;5099604;27;89359;-40
2023/04/03 11:01:38;;;;;;;;;;;9.30;66.10;;;;;;5103229;27;87114;-40
2023/04/03 11:04:05;;;;;;;;;;;9.30;66.20;;;;;;5103612;27;88783;-40
2023/04/03 11:06:39;;;;;;;;;;;9.30;66.20;;;;;;5105765;27;89654;-40
2023/04/03 11:09:26;;;;;;;;;;;9.30;66.20;;;;;;5103073;27;88900;-40
2023/04/03 11:11:53;;;;;;;;;;;9.40;66.20;;;;;;5094703;27;90678;-40
2023/04/03 11:14:30;;;;;;;;;;;9.40;66.20;;;;;;5102364;27;87122;-40
2023/04/03 11:17:01;;;;;;;;;;;9.40;66.20;;;;;;5103036;27;88556;-40
2023/04/03 11:19:29;;;;;;;;;;;9.40;66.30;;;;;;5102490;27;89347;-40
2023/04/03 11:22:04;;;;;;;;;;;9.40;66.50;;;;;;5102874;27;87231;-40
2023/04/03 11:24:32;;;;;;;;;;;9.40;66.30;;;;;;5099246;27;89199;-40
2023/04/03 11:26:58;;;;;;;;;;;9.30;66.60;;;;;;5102730;27;87730;-40
2023/04/03 11:29:27;;;;;;;;;;;9.40;66.60;;;;;;5105796;27;86302;-40
2023/04/03 11:31:52;;;;;;;;;;;9.40;66.70;;;;;;5102431;27;88204;-40
2023/04/03 11:34:21;;;;;;;;;;;9.40;66.70;;;;;;5102495;27;87282;-40
2023/04/03 11:36:55;;;;;;;;;;;9.40;66.80;;;;;;5102415;27;88025;-40
2023/04/03 11:39:20;;;;;;;;;;;9.40;66.90;;;;;;5101976;27;89200;-40
2023/04/03 11:41:46;;;;;;;;;;;9.40;67.10;;;;;;5102714;27;87107;-40
2023/04/03 11:44:30;;;;;;;;;;;9.40;67.00;;;;;;5102715;27;87361;-40
2023/04/03 11:46:57;;;;;;;;;;;9.40;67.00;;;;;;5102340;27;89742;-40
2023/04/03 11:49:42;;;;;;;;;;;9.40;67.20;;;;;;5102423;27;87018;-40
2023/04/03 11:52:10;;;;;;;;;;;9.40;67.20;;;;;;5105059;27;87716;-40
2023/04/03 11:54:43;;;;;;;;;;;9.40;67.40;;;;;;5099142;27;86331;-40
2023/04/03 11:57:27;;;;;;;;;;;9.40;67.40;;;;;;5102712;27;87655;-40
2023/04/03 11:59:52;;;;;;;;;;;9.40;67.40;;;;;;5099219;27;89376;-40
2023/04/03 12:02:37;;;;;;;;;;;9.40;67.50;;;;;;5101517;27;87979;-40
2023/04/03 12:05:21;;;;;;;;;;;9.40;68.30;;;;;;5098487;27;89576;-40
2023/04/03 12:08:06;;;;;;;;;;;9.40;67.70;;;;;;5098087;27;89381;-40
2023/04/03 12:10:32;;;;;;;;;;;9.40;67.80;;;;;;5101852;27;87113;-40
2023/04/03 12:12:58;;;;;;;;;;;9.40;67.90;;;;;;5104172;27;89121;-40
2023/04/03 12:15:26;;;;;;;;;;;9.40;68.10;;;;;;5102574;27;87944;-40
2023/04/03 12:17:52;;;;;;;;;;;9.40;67.90;;;;;;5102554;27;88712;-40
2023/04/03 12:20:43;;;;;;;;;;;9.40;68.10;;;;;;5102102;27;88879;-40
2023/04/03 12:23:24;;;;;;;;;;;9.40;68.10;;;;;;5100542;27;87096;-40
2023/04/03 12:25:50;;;;;;;;;;;9.40;68.00;;;;;;5099401;27;88982;-40
2023/04/03 12:28:16;;;;;;;;;;;9.40;68.20;;;;;;5100569;27;90127;-40
2023/04/03 12:30:42;;;;;;;;;;;9.40;68.10;;;;;;5101560;27;87097;-40
2023/04/03 12:33:28;;;;;;;;;;;9.40;68.00;;;;;;5101630;27;89021;-40
2023/04/03 12:35:54;;;;;;;;;;;9.40;68.30;;;;;;5104907;27;87919;-40
2023/04/03 12:38:38;;;;;;;;;;;9.40;68.30;;;;;;5101608;27;88648;-40
2023/04/03 12:41:04;;;;;;;;;;;9.40;68.60;;;;;;5101248;27;89123;-40
2023/04/03 12:43:38;;;;;;;;;;;9.40;68.60;;;;;;5101858;27;87154;-40
2023/04/03 12:46:09;;;;;;;;;;;9.40;68.70;;;;;;5102058;27;87250;-40
2023/04/03 12:48:55;;;;;;;;;;;9.40;68.70;;;;;;5101261;27;89405;-40
2023/04/03 12:51:39;;;;;;;;;;;9.40;68.70;;;;;;5095736;27;86987;-41
2023/04/03 12:54:24;;;;;;;;;;;9.50;68.80;;;;;;5098600;27;88906;-41
2023/04/03 12:56:50;;;;;;;;;;;9.40;68.90;;;;;;5098439;27;89630;-40
2023/04/03 12:59:20;;;;;;;;;;;9.40;68.90;;;;;;5104431;27;87569;-40
2023/04/03 13:01:55;;;;;;;;;;;9.40;68.80;;;;;;5101085;27;88368;-40
2023/04/03 13:04:21;;;;;;;;;;;9.40;68.90;;;;;;5097184;27;87509;-40
2023/04/03 13:06:46;;;;;;;;;;;9.50;68.80;;;;;;5098948;27;88816;-40
2023/04/03 13:09:18;;;;;;;;;;;9.40;68.70;;;;;;5101031;27;89691;-41
2023/04/03 13:11:44;;;;;;;;;;;9.40;68.90;;;;;;5101703;27;86480;-40
2023/04/03 13:14:18;;;;;;;;;;;9.40;68.80;;;;;;5100602;27;88464;-40
2023/04/03 13:16:54;;;;;;;;;;;9.40;68.60;;;;;;5101206;27;87916;-40
2023/04/03 13:19:22;;;;;;;;;;;9.40;68.60;;;;;;5096806;27;88112;-40
2023/04/03 13:21:48;;;;;;;;;;;9.40;68.30;;;;;;5103711;27;89585;-40
2023/04/03 13:24:13;;;;;;;;;;;9.40;68.70;;;;;;5101664;27;87165;-40
2023/04/03 13:26:39;;;;;;;;;;;9.40;68.50;;;;;;5101358;27;88554;-40
2023/04/03 13:29:06;;;;;;;;;;;9.40;68.90;;;;;;5100690;27;89454;-40
2023/04/03 13:31:33;;;;;;;;;;;9.40;68.80;;;;;;5101088;27;87097;-40
2023/04/03 13:34:12;;;;;;;;;;;9.40;68.80;;;;;;5101323;27;88584;-40
2023/04/03 13:36:44;;;;;;;;;;;9.40;68.70;;;;;;5101812;27;87598;-40
2023/04/03 13:39:10;;;;;;;;;;;9.40;68.60;;;;;;5097572;27;87611;-40
2023/04/03 13:41:40;;;;;;;;;;;9.40;68.80;;;;;;5101102;27;88626;-40
2023/04/03 13:44:25;;;;;;;;;;;9.40;68.70;;;;;;5102900;27;88887;-42
2023/04/03 13:46:55;;;;;;;;;;;9.40;68.70;;;;;;5099083;27;89509;-41
2023/04/03 13:49:28;;;;;;;;;;;9.40;68.80;;;;;;5100378;27;89271;-40
2023/04/03 13:51:54;;;;;;;;;;;9.40;68.90;;;;;;5093919;27;87134;-41
2023/04/03 13:54:22;;;;;;;;;;;9.40;68.80;;;;;;5098656;27;87877;-41
2023/04/03 13:56:53;;;;;;;;;;;9.40;68.90;;;;;;5099399;27;88354;-40
2023/04/03 13:59:18;;;;;;;;;;;9.40;69.20;;;;;;5103834;27;87049;-40
2023/04/03 14:01:55;;;;;;;;;;;9.40;69.10;;;;;;5105131;27;87645;-40
2023/04/03 14:04:23;;;;;;;;;;;9.40;69.20;;;;;;5103724;27;89349;-40
2023/04/03 14:06:49;;;;;;;;;;;9.40;69.20;;;;;;5106938;27;86990;-41
2023/04/03 14:09:16;;;;;;;;;;;9.40;69.30;;;;;;5102716;27;90326;-41
2023/04/03 14:11:42;;;;;;;;;;;9.30;69.20;;;;;;5103835;27;87102;-41
2023/04/03 14:14:24;;;;;;;;;;;9.40;69.20;;;;;;5103172;27;88734;-40
2023/04/03 14:16:52;;;;;;;;;;;9.30;69.60;;;;;;5100332;27;88336;-41
2023/04/03 14:19:20;;;;;;;;;;;9.40;69.50;;;;;;5103639;27;87069;-40
2023/04/03 14:21:46;;;;;;;;;;;9.30;69.40;;;;;;5103939;27;88769;-40
2023/04/03 14:24:12;;;;;;;;;;;9.30;69.60;;;;;;5103827;27;88057;-41
2023/04/03 14:26:37;;;;;;;;;;;9.30;69.60;;;;;;5107149;27;86904;-40
2023/04/03 14:29:03;;;;;;;;;;;9.30;69.60;;;;;;5103213;27;89564;-41
2023/04/03 14:31:28;;;;;;;;;;;9.30;69.70;;;;;;5103558;27;87176;-41
2023/04/03 14:33:54;;;;;;;;;;;9.30;69.70;;;;;;5103038;27;88808;-41